sensor_id;sensor_type;location;lat;lon;timestamp;temperature;humidity
25360;DHT22;13311;51.386;0.016;2022-12-29T00:03:52;12.50;99.90
25360;DHT22;13311;51.386;0.016;2022-12-29T00:08:55;12.50;99.90
25360;DHT22;13311;51.386;0.016;2022-12-29T00:13:56;12.60;99.90
25360;DHT22;13311;51.386;0.016;2022-12-29T00:19:15;12.60;99.90
25360;DHT22;13311;51.386;0.016;2022-12-29T00:24:35;12.40;99.90
25360;DHT22;13311;51.386;0.016;2022-12-29T00:29:53;12.30;99.90
25360;DHT22;13311;51.386;0.016;2022-12-29T00:35:19;12.40;99.90
25360;DHT22;13311;51.386;0.016;2022-12-29T00:40:29;12.50;99.90
25360;DHT22;13311;51.386;0.016;2022-12-29T00:45:53;12.50;99.90
25360;DHT22;13311;51.386;0.016;2022-12-29T00:50:56;12.40;99.90
25360;DHT22;13311;51.386;0.016;2022-12-29T00:55:59;12.40;99.90
25360;DHT22;13311;51.386;0.016;2022-12-29T01:01:03;12.40;99.90
25360;DHT22;13311;51.386;0.016;2022-12-29T01:06:07;12.30;99.90
25360;DHT22;13311;51.386;0.016;2022-12-29T01:11:12;12.20;99.90
25360;DHT22;13311;51.386;0.016;2022-12-29T01:16:13;12.20;99.90
25360;DHT22;13311;51.386;0.016;2022-12-29T01:21:14;12.20;99.90
25360;DHT22;13311;51.386;0.016;2022-12-29T01:26:16;12.30;99.90
25360;DHT22;13311;51.386;0.016;2022-12-29T01:31:18;12.30;99.90
25360;DHT22;13311;51.386;0.016;2022-12-29T01:36:19;12.30;99.90
25360;DHT22;13311;51.386;0.016;2022-12-29T01:41:20;12.30;99.90
25360;DHT22;13311;51.386;0.016;2022-12-29T01:46:28;12.20;99.90
25360;DHT22;13311;51.386;0.016;2022-12-29T01:52:02;12.10;99.90
25360;DHT22;13311;51.386;0.016;2022-12-29T01:57:10;12.10;99.90
25360;DHT22;13311;51.386;0.016;2022-12-29T02:02:14;12.00;99.90
25360;DHT22;13311;51.386;0.016;2022-12-29T02:07:18;12.00;99.90
25360;DHT22;13311;51.386;0.016;2022-12-29T02:12:22;11.90;99.90
25360;DHT22;13311;51.386;0.016;2022-12-29T02:45:15;12.00;99.90
25360;DHT22;13311;51.386;0.016;2022-12-29T02:55:29;12.00;99.90
25360;DHT22;13311;51.386;0.016;2022-12-29T03:00:30;12.00;99.90
25360;DHT22;13311;51.386;0.016;2022-12-29T03:21:44;12.10;99.90
25360;DHT22;13311;51.386;0.016;2022-12-29T03:27:09;12.10;99.90
25360;DHT22;13311;51.386;0.016;2022-12-29T03:32:12;12.10;99.90
25360;DHT22;13311;51.386;0.016;2022-12-29T03:37:18;12.20;99.90
25360;DHT22;13311;51.386;0.016;2022-12-29T03:42:27;12.30;99.90
25360;DHT22;13311;51.386;0.016;2022-12-29T03:47:29;12.40;99.90
25360;DHT22;13311;51.386;0.016;2022-12-29T03:52:30;12.30;99.90
25360;DHT22;13311;51.386;0.016;2022-12-29T03:57:32;12.30;99.90
25360;DHT22;13311;51.386;0.016;2022-12-29T04:02:33;12.30;99.90
25360;DHT22;13311;51.386;0.016;2022-12-29T04:07:33;12.40;99.90
25360;DHT22;13311;51.386;0.016;2022-12-29T04:12:35;12.40;99.90
25360;DHT22;13311;51.386;0.016;2022-12-29T04:17:36;12.50;99.90
25360;DHT22;13311;51.386;0.016;2022-12-29T04:22:37;12.30;99.90
25360;DHT22;13311;51.386;0.016;2022-12-29T04:27:38;12.20;99.90
25360;DHT22;13311;51.386;0.016;2022-12-29T04:32:40;12.30;99.90
25360;DHT22;13311;51.386;0.016;2022-12-29T04:37:41;12.30;99.90
25360;DHT22;13311;51.386;0.016;2022-12-29T04:42:43;12.30;99.90
25360;DHT22;13311;51.386;0.016;2022-12-29T04:47:44;12.20;99.90
25360;DHT22;13311;51.386;0.016;2022-12-29T04:52:45;12.20;99.90
25360;DHT22;13311;51.386;0.016;2022-12-29T04:57:47;12.20;99.90
25360;DHT22;13311;51.386;0.016;2022-12-29T05:02:48;12.10;99.90
25360;DHT22;13311;51.386;0.016;2022-12-29T05:07:52;12.20;99.90
25360;DHT22;13311;51.386;0.016;2022-12-29T05:12:52;12.10;99.90
25360;DHT22;13311;51.386;0.016;2022-12-29T05:17:54;12.00;99.90
25360;DHT22;13311;51.386;0.016;2022-12-29T05:22:54;12.20;99.90
25360;DHT22;13311;51.386;0.016;2022-12-29T05:27:55;12.30;99.90
25360;DHT22;13311;51.386;0.016;2022-12-29T05:32:57;12.30;99.90
25360;DHT22;13311;51.386;0.016;2022-12-29T05:37:57;12.10;99.90
25360;DHT22;13311;51.386;0.016;2022-12-29T05:42:58;12.20;99.90
25360;DHT22;13311;51.386;0.016;2022-12-29T05:47:59;12.30;99.90
25360;DHT22;13311;51.386;0.016;2022-12-29T05:53:00;12.40;99.90
25360;DHT22;13311;51.386;0.016;2022-12-29T05:58:00;12.50;99.90
25360;DHT22;13311;51.386;0.016;2022-12-29T06:03:03;12.40;99.90
25360;DHT22;13311;51.386;0.016;2022-12-29T06:08:04;12.50;99.90
25360;DHT22;13311;51.386;0.016;2022-12-29T06:13:07;12.60;99.90
25360;DHT22;13311;51.386;0.016;2022-12-29T06:18:08;12.60;99.90
25360;DHT22;13311;51.386;0.016;2022-12-29T06:23:08;12.70;99.90
25360;DHT22;13311;51.386;0.016;2022-12-29T06:28:13;12.70;99.90
25360;DHT22;13311;51.386;0.016;2022-12-29T06:33:15;12.70;99.90
25360;DHT22;13311;51.386;0.016;2022-12-29T06:38:15;12.70;99.90
25360;DHT22;13311;51.386;0.016;2022-12-29T06:43:16;12.60;99.90
25360;DHT22;13311;51.386;0.016;2022-12-29T06:48:17;12.60;99.90
25360;DHT22;13311;51.386;0.016;2022-12-29T06:53:18;12.60;99.90
25360;DHT22;13311;51.386;0.016;2022-12-29T06:58:18;12.60;99.90
25360;DHT22;13311;51.386;0.016;2022-12-29T07:03:20;12.50;99.90
25360;DHT22;13311;51.386;0.016;2022-12-29T07:08:20;12.30;99.90
25360;DHT22;13311;51.386;0.016;2022-12-29T07:13:21;12.30;99.90
25360;DHT22;13311;51.386;0.016;2022-12-29T07:18:22;12.20;99.90
25360;DHT22;13311;51.386;0.016;2022-12-29T07:23:23;12.20;99.90
25360;DHT22;13311;51.386;0.016;2022-12-29T07:28:24;12.30;99.90
25360;DHT22;13311;51.386;0.016;2022-12-29T07:33:25;12.20;99.90
25360;DHT22;13311;51.386;0.016;2022-12-29T07:38:25;12.10;99.90
25360;DHT22;13311;51.386;0.016;2022-12-29T07:43:27;12.00;99.90
25360;DHT22;13311;51.386;0.016;2022-12-29T07:48:28;11.90;99.90
25360;DHT22;13311;51.386;0.016;2022-12-29T07:53:29;11.90;99.90
25360;DHT22;13311;51.386;0.016;2022-12-29T07:58:29;11.90;99.90
25360;DHT22;13311;51.386;0.016;2022-12-29T08:03:30;11.70;99.90
25360;DHT22;13311;51.386;0.016;2022-12-29T08:08:33;11.70;99.90
25360;DHT22;13311;51.386;0.016;2022-12-29T08:13:34;11.80;99.90
25360;DHT22;13311;51.386;0.016;2022-12-29T08:18:38;11.70;99.90
25360;DHT22;13311;51.386;0.016;2022-12-29T08:23:38;11.70;99.90
25360;DHT22;13311;51.386;0.016;2022-12-29T08:28:39;11.60;99.90
25360;DHT22;13311;51.386;0.016;2022-12-29T08:33:40;11.50;99.90
25360;DHT22;13311;51.386;0.016;2022-12-29T08:38:40;11.60;99.90
25360;DHT22;13311;51.386;0.016;2022-12-29T08:43:44;11.60;99.90
25360;DHT22;13311;51.386;0.016;2022-12-29T08:48:46;11.60;99.90
25360;DHT22;13311;51.386;0.016;2022-12-29T08:53:47;11.60;99.90
25360;DHT22;13311;51.386;0.016;2022-12-29T08:58:47;11.50;99.90
25360;DHT22;13311;51.386;0.016;2022-12-29T09:03:48;11.40;99.90
25360;DHT22;13311;51.386;0.016;2022-12-29T09:08:49;11.40;99.90
25360;DHT22;13311;51.386;0.016;2022-12-29T09:13:51;11.60;99.90
25360;DHT22;13311;51.386;0.016;2022-12-29T09:18:56;11.50;99.90
25360;DHT22;13311;51.386;0.016;2022-12-29T09:23:57;11.60;99.90
25360;DHT22;13311;51.386;0.016;2022-12-29T09:28:58;11.70;99.90
25360;DHT22;13311;51.386;0.016;2022-12-29T09:33:59;11.70;99.90
25360;DHT22;13311;51.386;0.016;2022-12-29T09:38:59;11.80;99.90
25360;DHT22;13311;51.386;0.016;2022-12-29T09:44:46;11.70;99.90
25360;DHT22;13311;51.386;0.016;2022-12-29T09:55:02;11.80;99.90
25360;DHT22;13311;51.386;0.016;2022-12-29T10:00:12;11.80;99.90
25360;DHT22;13311;51.386;0.016;2022-12-29T10:05:35;11.90;99.90
25360;DHT22;13311;51.386;0.016;2022-12-29T10:10:59;11.90;99.90
25360;DHT22;13311;51.386;0.016;2022-12-29T10:16:36;12.00;99.90
25360;DHT22;13311;51.386;0.016;2022-12-29T10:27:12;12.30;99.90
25360;DHT22;13311;51.386;0.016;2022-12-29T10:32:32;12.30;99.90
25360;DHT22;13311;51.386;0.016;2022-12-29T10:43:12;12.40;99.90
25360;DHT22;13311;51.386;0.016;2022-12-29T10:48:29;12.50;99.90
25360;DHT22;13311;51.386;0.016;2022-12-29T10:53:40;12.60;99.80
25360;DHT22;13311;51.386;0.016;2022-12-29T10:58:49;12.50;99.50
25360;DHT22;13311;51.386;0.016;2022-12-29T11:04:05;12.60;99.70
25360;DHT22;13311;51.386;0.016;2022-12-29T11:09:23;12.60;99.40
25360;DHT22;13311;51.386;0.016;2022-12-29T11:14:30;12.70;99.90
25360;DHT22;13311;51.386;0.016;2022-12-29T11:19:32;12.70;99.90
25360;DHT22;13311;51.386;0.016;2022-12-29T11:24:43;12.70;99.70
25360;DHT22;13311;51.386;0.016;2022-12-29T11:29:45;12.80;99.90
25360;DHT22;13311;51.386;0.016;2022-12-29T11:34:52;12.80;99.60
25360;DHT22;13311;51.386;0.016;2022-12-29T11:40:00;12.80;99.40
25360;DHT22;13311;51.386;0.016;2022-12-29T11:45:22;12.90;98.50
25360;DHT22;13311;51.386;0.016;2022-12-29T11:50:27;12.80;98.10
25360;DHT22;13311;51.386;0.016;2022-12-29T11:55:32;12.80;98.80
25360;DHT22;13311;51.386;0.016;2022-12-29T12:00:36;12.80;98.60
25360;DHT22;13311;51.386;0.016;2022-12-29T12:05:58;12.90;98.90
25360;DHT22;13311;51.386;0.016;2022-12-29T12:11:10;12.80;97.50
25360;DHT22;13311;51.386;0.016;2022-12-29T12:16:18;12.80;97.70
25360;DHT22;13311;51.386;0.016;2022-12-29T12:21:25;12.80;98.20
25360;DHT22;13311;51.386;0.016;2022-12-29T12:32:36;12.70;98.60
25360;DHT22;13311;51.386;0.016;2022-12-29T12:43:36;12.80;98.60
25360;DHT22;13311;51.386;0.016;2022-12-29T12:49:02;12.80;98.10
25360;DHT22;13311;51.386;0.016;2022-12-29T12:54:38;12.80;97.60
25360;DHT22;13311;51.386;0.016;2022-12-29T13:00:08;12.70;97.10
25360;DHT22;13311;51.386;0.016;2022-12-29T13:10:45;12.80;97.80
25360;DHT22;13311;51.386;0.016;2022-12-29T13:26:54;13.00;97.70
25360;DHT22;13311;51.386;0.016;2022-12-29T13:37:46;13.10;97.60
25360;DHT22;13311;51.386;0.016;2022-12-29T13:42:54;13.20;97.20
25360;DHT22;13311;51.386;0.016;2022-12-29T13:48:35;13.20;97.10
25360;DHT22;13311;51.386;0.016;2022-12-29T13:59:12;13.30;95.40
25360;DHT22;13311;51.386;0.016;2022-12-29T14:04:24;13.20;96.00
25360;DHT22;13311;51.386;0.016;2022-12-29T14:10:02;13.10;95.90
25360;DHT22;13311;51.386;0.016;2022-12-29T14:20:23;13.10;97.00
25360;DHT22;13311;51.386;0.016;2022-12-29T14:25:53;13.00;95.30
25360;DHT22;13311;51.386;0.016;2022-12-29T14:36:33;13.00;96.80
25360;DHT22;13311;51.386;0.016;2022-12-29T14:41:38;13.00;96.80
25360;DHT22;13311;51.386;0.016;2022-12-29T14:47:00;12.90;96.40
25360;DHT22;13311;51.386;0.016;2022-12-29T14:52:16;12.80;95.50
25360;DHT22;13311;51.386;0.016;2022-12-29T14:57:37;12.80;97.40
25360;DHT22;13311;51.386;0.016;2022-12-29T15:02:43;12.70;95.60
25360;DHT22;13311;51.386;0.016;2022-12-29T15:07:47;12.60;95.50
25360;DHT22;13311;51.386;0.016;2022-12-29T15:12:53;12.60;97.60
25360;DHT22;13311;51.386;0.016;2022-12-29T15:17:56;12.50;96.20
25360;DHT22;13311;51.386;0.016;2022-12-29T15:23:12;12.30;96.10
25360;DHT22;13311;51.386;0.016;2022-12-29T15:28:17;12.20;96.00
25360;DHT22;13311;51.386;0.016;2022-12-29T15:33:26;12.10;95.60
25360;DHT22;13311;51.386;0.016;2022-12-29T15:38:30;12.10;95.90
25360;DHT22;13311;51.386;0.016;2022-12-29T15:43:40;12.00;95.20
25360;DHT22;13311;51.386;0.016;2022-12-29T15:49:05;12.00;95.10
25360;DHT22;13311;51.386;0.016;2022-12-29T15:54:19;12.10;95.40
25360;DHT22;13311;51.386;0.016;2022-12-29T15:59:29;12.00;94.10
25360;DHT22;13311;51.386;0.016;2022-12-29T16:04:31;12.00;94.60
25360;DHT22;13311;51.386;0.016;2022-12-29T16:09:43;12.10;95.70
25360;DHT22;13311;51.386;0.016;2022-12-29T16:14:54;12.10;95.80
25360;DHT22;13311;51.386;0.016;2022-12-29T16:20:52;12.10;96.00
25360;DHT22;13311;51.386;0.016;2022-12-29T16:25:35;12.10;95.10
25360;DHT22;13311;51.386;0.016;2022-12-29T16:30:37;11.90;93.90
25360;DHT22;13311;51.386;0.016;2022-12-29T16:41:00;11.80;94.30
25360;DHT22;13311;51.386;0.016;2022-12-29T16:51:30;11.70;95.00
25360;DHT22;13311;51.386;0.016;2022-12-29T16:56:36;11.60;94.60
25360;DHT22;13311;51.386;0.016;2022-12-29T17:01:39;11.60;95.20
25360;DHT22;13311;51.386;0.016;2022-12-29T17:06:40;11.60;95.90
25360;DHT22;13311;51.386;0.016;2022-12-29T17:11:41;11.60;95.80
25360;DHT22;13311;51.386;0.016;2022-12-29T17:16:54;11.50;95.90
25360;DHT22;13311;51.386;0.016;2022-12-29T17:21:55;11.40;94.70
25360;DHT22;13311;51.386;0.016;2022-12-29T17:26:58;11.30;94.80
25360;DHT22;13311;51.386;0.016;2022-12-29T17:32:00;11.30;95.60
25360;DHT22;13311;51.386;0.016;2022-12-29T17:37:02;11.20;95.50
25360;DHT22;13311;51.386;0.016;2022-12-29T17:42:03;11.30;96.20
25360;DHT22;13311;51.386;0.016;2022-12-29T17:47:04;11.20;95.70
25360;DHT22;13311;51.386;0.016;2022-12-29T17:52:05;11.20;95.40
25360;DHT22;13311;51.386;0.016;2022-12-29T17:57:17;11.10;95.70
25360;DHT22;13311;51.386;0.016;2022-12-29T18:02:28;11.00;95.80
25360;DHT22;13311;51.386;0.016;2022-12-29T18:07:30;10.90;95.30
25360;DHT22;13311;51.386;0.016;2022-12-29T18:12:40;10.70;95.70
25360;DHT22;13311;51.386;0.016;2022-12-29T18:17:42;10.60;95.90
25360;DHT22;13311;51.386;0.016;2022-12-29T18:22:42;10.60;95.90
25360;DHT22;13311;51.386;0.016;2022-12-29T18:27:45;10.60;96.30
25360;DHT22;13311;51.386;0.016;2022-12-29T18:32:45;10.60;96.00
25360;DHT22;13311;51.386;0.016;2022-12-29T18:37:46;10.60;97.80
25360;DHT22;13311;51.386;0.016;2022-12-29T18:42:48;10.40;96.20
25360;DHT22;13311;51.386;0.016;2022-12-29T18:47:49;10.30;96.50
25360;DHT22;13311;51.386;0.016;2022-12-29T18:52:50;10.30;96.60
25360;DHT22;13311;51.386;0.016;2022-12-29T18:57:50;10.20;96.80
25360;DHT22;13311;51.386;0.016;2022-12-29T19:02:51;10.20;96.70
25360;DHT22;13311;51.386;0.016;2022-12-29T19:07:55;10.10;97.10
25360;DHT22;13311;51.386;0.016;2022-12-29T19:12:56;10.10;98.10
25360;DHT22;13311;51.386;0.016;2022-12-29T19:17:59;9.90;97.30
25360;DHT22;13311;51.386;0.016;2022-12-29T19:23:03;9.90;97.40
25360;DHT22;13311;51.386;0.016;2022-12-29T19:28:06;9.80;97.50
25360;DHT22;13311;51.386;0.016;2022-12-29T19:33:17;9.90;97.90
25360;DHT22;13311;51.386;0.016;2022-12-29T19:38:18;9.90;97.90
25360;DHT22;13311;51.386;0.016;2022-12-29T19:43:19;10.00;98.00
25360;DHT22;13311;51.386;0.016;2022-12-29T19:48:20;9.90;97.80
25360;DHT22;13311;51.386;0.016;2022-12-29T19:53:20;9.80;97.80
25360;DHT22;13311;51.386;0.016;2022-12-29T19:58:21;9.90;98.20
25360;DHT22;13311;51.386;0.016;2022-12-29T20:03:22;9.80;97.90
25360;DHT22;13311;51.386;0.016;2022-12-29T20:08:22;9.70;98.20
25360;DHT22;13311;51.386;0.016;2022-12-29T20:13:25;9.70;98.10
25360;DHT22;13311;51.386;0.016;2022-12-29T20:18:26;9.70;98.10
25360;DHT22;13311;51.386;0.016;2022-12-29T20:23:27;9.70;98.30
25360;DHT22;13311;51.386;0.016;2022-12-29T20:28:28;9.60;98.30
25360;DHT22;13311;51.386;0.016;2022-12-29T20:33:31;9.60;98.50
25360;DHT22;13311;51.386;0.016;2022-12-29T20:38:32;9.60;98.50
25360;DHT22;13311;51.386;0.016;2022-12-29T20:43:33;9.60;98.80
25360;DHT22;13311;51.386;0.016;2022-12-29T20:48:34;9.60;98.70
25360;DHT22;13311;51.386;0.016;2022-12-29T20:53:36;9.50;98.90
25360;DHT22;13311;51.386;0.016;2022-12-29T20:58:37;9.50;98.90
25360;DHT22;13311;51.386;0.016;2022-12-29T21:03:39;9.40;99.00
25360;DHT22;13311;51.386;0.016;2022-12-29T21:08:40;9.40;99.30
25360;DHT22;13311;51.386;0.016;2022-12-29T21:13:41;9.30;99.30
25360;DHT22;13311;51.386;0.016;2022-12-29T21:18:41;9.30;99.40
25360;DHT22;13311;51.386;0.016;2022-12-29T21:23:45;9.20;99.60
25360;DHT22;13311;51.386;0.016;2022-12-29T21:28:46;9.20;99.60
25360;DHT22;13311;51.386;0.016;2022-12-29T21:33:47;9.20;99.60
25360;DHT22;13311;51.386;0.016;2022-12-29T21:38:50;9.10;99.80
25360;DHT22;13311;51.386;0.016;2022-12-29T21:43:51;9.10;99.90
25360;DHT22;13311;51.386;0.016;2022-12-29T21:49:10;9.10;99.90
25360;DHT22;13311;51.386;0.016;2022-12-29T21:54:11;9.00;99.90
25360;DHT22;13311;51.386;0.016;2022-12-29T21:59:30;9.10;99.90
25360;DHT22;13311;51.386;0.016;2022-12-29T22:04:50;9.00;99.90
25360;DHT22;13311;51.386;0.016;2022-12-29T22:10:09;9.10;99.90
25360;DHT22;13311;51.386;0.016;2022-12-29T22:15:34;9.10;99.90
25360;DHT22;13311;51.386;0.016;2022-12-29T22:20:36;9.00;99.90
25360;DHT22;13311;51.386;0.016;2022-12-29T22:25:38;9.10;99.90
25360;DHT22;13311;51.386;0.016;2022-12-29T22:30:39;9.00;99.90
25360;DHT22;13311;51.386;0.016;2022-12-29T22:35:40;9.00;99.90
25360;DHT22;13311;51.386;0.016;2022-12-29T22:40:41;8.90;99.90
25360;DHT22;13311;51.386;0.016;2022-12-29T22:45:41;9.00;99.90
25360;DHT22;13311;51.386;0.016;2022-12-29T22:50:42;9.00;99.90
25360;DHT22;13311;51.386;0.016;2022-12-29T22:55:43;8.90;99.90
25360;DHT22;13311;51.386;0.016;2022-12-29T23:00:43;8.80;99.90
25360;DHT22;13311;51.386;0.016;2022-12-29T23:05:57;8.70;99.90
25360;DHT22;13311;51.386;0.016;2022-12-29T23:10:59;8.60;99.90
25360;DHT22;13311;51.386;0.016;2022-12-29T23:16:01;8.60;99.90
25360;DHT22;13311;51.386;0.016;2022-12-29T23:21:02;8.60;99.90
25360;DHT22;13311;51.386;0.016;2022-12-29T23:26:03;8.60;99.90
25360;DHT22;13311;51.386;0.016;2022-12-29T23:31:04;8.50;99.90
25360;DHT22;13311;51.386;0.016;2022-12-29T23:36:05;8.40;99.90
25360;DHT22;13311;51.386;0.016;2022-12-29T23:41:07;8.40;99.90
25360;DHT22;13311;51.386;0.016;2022-12-29T23:46:12;8.50;99.90
25360;DHT22;13311;51.386;0.016;2022-12-29T23:51:17;8.50;99.90
25360;DHT22;13311;51.386;0.016;2022-12-29T23:56:21;8.50;99.90
